createdAt,value
2018-11-12T00:00:27.240Z,534
2018-11-12T00:01:34.168Z,535
2018-11-12T00:02:41.382Z,534
2018-11-12T00:03:48.023Z,535
2018-11-12T00:04:55.238Z,534
2018-11-12T00:06:02.158Z,535
2018-11-12T00:07:09.152Z,534
2018-11-12T00:08:16.074Z,533
2018-11-12T00:09:23.007Z,535
2018-11-12T00:10:29.934Z,534
2018-11-12T00:11:36.861Z,534
2018-11-12T00:12:44.059Z,535
2018-11-12T00:13:50.712Z,535
2018-11-12T00:14:57.640Z,535
2018-11-12T00:16:04.580Z,536
2018-11-12T00:17:11.777Z,536
2018-11-12T00:18:18.981Z,535
2018-11-12T00:19:25.899Z,536
2018-11-12T00:20:33.097Z,536
2018-11-12T00:21:40.337Z,537
2018-11-12T00:22:47.550Z,537
2018-11-12T00:23:54.485Z,537
2018-11-12T00:25:01.688Z,537
2018-11-12T00:26:08.619Z,537
2018-11-12T00:27:15.548Z,538
2018-11-12T00:28:22.747Z,540
2018-11-12T00:29:29.669Z,539
2018-11-12T00:30:36.594Z,539
2018-11-12T00:31:43.517Z,539
2018-11-12T00:32:50.441Z,540
2018-11-12T00:33:57.650Z,540
2018-11-12T00:35:04.852Z,539
2018-11-12T00:36:11.782Z,541
2018-11-12T00:37:18.434Z,539
2018-11-12T00:38:25.639Z,540
2018-11-12T00:39:32.292Z,540
2018-11-12T00:40:39.219Z,541
2018-11-12T00:41:46.146Z,541
2018-11-12T00:42:53.083Z,541
2018-11-12T00:44:00.285Z,541
2018-11-12T00:45:07.230Z,540
2018-11-12T00:46:14.433Z,540
2018-11-12T00:47:21.638Z,540
2018-11-12T00:48:28.563Z,540
2018-11-12T00:49:35.486Z,540
2018-11-12T00:50:42.422Z,540
2018-11-12T00:51:49.623Z,540
2018-11-12T00:52:56.547Z,540
2018-11-12T00:54:03.749Z,541
2018-11-12T00:55:10.108Z,540
2018-11-12T00:56:17.312Z,541
2018-11-12T00:57:24.520Z,540
2018-11-12T00:58:31.446Z,539
2018-11-12T00:59:38.643Z,541
2018-11-12T01:00:45.287Z,542
2018-11-12T01:01:51.940Z,542
2018-11-12T01:02:59.136Z,542
2018-11-12T01:04:06.602Z,541
2018-11-12T01:05:13.663Z,541
2018-11-12T01:06:20.862Z,542
2018-11-12T01:07:27.519Z,541
2018-11-12T01:08:34.447Z,541
2018-11-12T01:09:41.379Z,540
2018-11-12T01:10:48.314Z,540
2018-11-12T01:11:55.518Z,539
2018-11-12T01:13:02.721Z,541
2018-11-12T01:14:09.654Z,541
2018-11-12T01:15:16.856Z,540
2018-11-12T01:16:24.058Z,541
2018-11-12T01:17:31.262Z,540
2018-11-12T01:18:38.471Z,540
2018-11-12T01:19:45.392Z,541
2018-11-12T01:20:52.593Z,541
2018-11-12T01:21:59.520Z,541
2018-11-12T01:23:06.446Z,540
2018-11-12T01:24:13.382Z,540
2018-11-12T01:25:20.575Z,538
2018-11-12T01:26:27.780Z,539
2018-11-12T01:27:34.710Z,539
2018-11-12T01:28:41.356Z,539
2018-11-12T01:29:48.560Z,539
2018-11-12T01:30:55.759Z,539
2018-11-12T01:32:02.960Z,540
2018-11-12T01:33:09.880Z,538
2018-11-12T23:00:07.250Z,501
2018-11-12T23:01:14.461Z,495
2018-11-12T23:02:21.118Z,495
2018-11-12T23:03:28.044Z,494
2018-11-12T23:04:34.970Z,493
2018-11-12T23:05:41.350Z,493
2018-11-12T23:06:48.287Z,492
2018-11-12T23:07:55.488Z,492
2018-11-12T23:09:02.696Z,492
2018-11-12T23:10:09.894Z,492
2018-11-12T23:11:17.098Z,492
2018-11-12T23:12:24.197Z,493
2018-11-12T23:13:31.504Z,491
2018-11-12T23:14:38.467Z,491
2018-11-12T23:15:45.662Z,492
2018-11-12T23:16:52.868Z,492
2018-11-12T23:17:59.809Z,493
2018-11-12T23:19:06.188Z,492
2018-11-12T23:20:13.122Z,493
2018-11-12T23:21:20.323Z,493
2018-11-12T23:22:27.522Z,495
2018-11-12T23:23:34.730Z,494
2018-11-12T23:24:41.658Z,494
2018-11-12T23:25:48.869Z,494
2018-11-12T23:26:55.508Z,494
2018-11-12T23:28:02.442Z,493
2018-11-12T23:29:08.831Z,493
2018-11-12T23:30:15.486Z,492
2018-11-12T23:31:21.876Z,492
2018-11-12T23:32:28.253Z,492
2018-11-12T23:33:34.910Z,492
2018-11-12T23:34:41.299Z,492
2018-11-12T23:35:47.960Z,492
2018-11-12T23:36:55.170Z,493
2018-11-12T23:38:02.107Z,493
2018-11-12T23:39:09.036Z,492
2018-11-12T23:40:16.244Z,493
2018-11-12T23:41:23.446Z,494
2018-11-12T23:42:30.095Z,495
2018-11-12T23:43:37.019Z,495
2018-11-12T23:44:43.945Z,495
2018-11-12T23:45:51.161Z,495
2018-11-12T23:46:59.988Z,497
2018-11-12T23:48:06.521Z,496
2018-11-12T23:49:13.446Z,496
2018-11-12T23:50:20.652Z,496
2018-11-12T23:51:27.854Z,496
2018-11-12T23:52:35.060Z,497
2018-11-12T23:53:42.263Z,497
2018-11-12T23:54:49.469Z,497
2018-11-12T23:55:56.680Z,498
2018-11-12T23:57:03.607Z,498
2018-11-12T23:58:10.538Z,498
2018-11-12T23:59:17.186Z,498
